• Join FlightAware (Why Join?)
  • Login
  • US Flag 
02:20AM EDT


 

Airport Tracker/Info


-or-


 

Live Flight TrackerFlight Track Log ✈ UAL252 ✈ 23-Apr-2013 ✈ KORD - KEWR

Flight Track Log - Related Links

Times and Time Zones

All times are in EDT time to prevent confusion due to time zone crossing. See the UAL252 flight status page for this flight to view local times or setup timezone preferences in your user account.

Time Position Orientation Groundspeed Altitude Reporting Facility
EDT Latitude Longitude Course Direction KTS MPH feet Rate Location/Type
09:24AM 41.9500 -87.8500 80° East 181 208 3,800  Level Chicago TRACON
09:25AM 41.9667 -87.7833 71° East 235 270 5,200 2,100 Climbing Chicago TRACON
09:26AM 42.0520 -87.3537 78° East  Level FlightAware Approximate
09:26AM 42.0000 -87.6833 66° East 306 352 8,100  Level Chicago TRACON
09:27AM 42.0743 -87.2093 78° East  Level FlightAware Approximate
09:28AM 42.0975 -87.0651 77° East  Level FlightAware Approximate
09:28AM 42.0458 -87.4806 73° East 326 375 13,700  Level Chicago Center
09:29AM 42.1122 -86.9193 80° East  Level FlightAware Approximate
09:29AM 42.0658 -87.3506 78° East 348 400 15,400  Level Chicago Center
09:30AM 42.0892 -87.2039 78° East 394 453 17,900 3,000 Climbing Chicago Center
09:31AM 42.1125 -87.0506 78° East 413 475 21,600 3,120 Climbing Chicago Center
09:32AM 42.1194 -86.8639 87° East 418 481 24,400 2,400 Climbing Chicago Center
09:33AM 42.1258 -86.6981 87° East 439 505 26,600 1,800 Climbing Chicago Center
09:34AM 42.1303 -86.5431 88° East 464 534 28,100 1,620 Climbing Chicago Center
09:35AM 42.1378 -86.3292 87° East 475 547 30,000 1,500 Climbing Chicago Center
09:36AM 42.1433 -86.1469 88° East 482 555 31,300 1,080 Climbing Chicago Center
09:37AM 42.1425 -85.9603 90° East 495 570 32,300 900 Climbing Chicago Center
09:38AM 42.1411 -85.7856 91° East 508 585 33,200 780 Climbing Chicago Center
09:39AM 42.1386 -85.5503 91° East 525 604 34,000 480 Climbing Chicago Center
09:40AM 42.1369 -85.3539 91° East 528 608 34,300 480 Climbing Chicago Center
09:41AM 42.1353 -85.1528 91° East 540 621 35,000 840 Climbing Chicago Center
09:42AM 42.1325 -84.9486 91° East 546 628 36,100 960 Climbing Chicago Center
09:43AM 42.1289 -84.7442 91° East 547 629 37,000 360 Climbing Chicago Center
09:44AM 42.1264 -84.5086 91° East 549 632 37,000  Level Cleveland Center
09:45AM 42.1419 -84.2911 84° East 544 626 37,000  Level Cleveland Center
09:46AM 42.1625 -84.0961 82° East 528 608 37,100  Climbing Cleveland Center
09:47AM 42.1828 -83.9039 82° East 528 608 37,000 -60 Descending Cleveland Center
09:48AM 42.2028 -83.7172 82° East 513 590 37,000  Level Cleveland Center
09:49AM 42.2156 -83.5467 84° East 507 583 37,000  Level Cleveland Center
09:50AM 42.2000 -83.3414 96° East 501 577 37,000  Level Cleveland Center
09:51AM 42.1683 -83.1719 104° East 508 585 37,000  Level Cleveland Center
09:52AM 42.1369 -82.9914 103° East 508 585 37,000  Level Cleveland Center
09:53AM 42.1031 -82.8081 104° East 503 579 37,000  Level Cleveland Center
09:54AM 42.0647 -82.6278 106° East 498 573 37,000  Level Cleveland Center
09:55AM 42.0386 -82.4481 101° East 498 573 37,000  Level Cleveland Center
09:56AM 41.9997 -82.2681 106° East 493 567 37,000  Level Cleveland Center
09:57AM 41.9650 -82.0717 103° East 493 567 37,000  Level Cleveland Center
09:58AM 41.9297 -81.8867 104° East 500 575 37,000  Level Cleveland Center
09:59AM 41.9044 -81.7019 100° East 500 575 37,000  Level Cleveland Center
10:00AM 41.8894 -81.5342 97° East 505 581 37,000  Level Cleveland Center
10:01AM 41.8739 -81.3500 96° East 499 574 37,000  Level Cleveland Center
10:02AM 41.8564 -81.1658 97° East 504 580 37,000  Level Cleveland Center
10:03AM 41.8864 -80.9931 77° East 482 555 37,000  Level Cleveland Center
10:04AM 41.9411 -80.8064 68° East 474 545 37,000  Level Cleveland Center
10:05AM 41.9892 -80.6447 68° East 474 545 37,000  Level Cleveland Center
10:06AM 41.9767 -80.4575 95° East 480 552 37,000  Level Cleveland Center
10:07AM 41.8867 -80.3183 131° Southeast 461 531 37,100  Climbing Cleveland Center
10:08AM 41.7947 -80.1933 135° Southeast 461 531 37,000 -60 Descending Cleveland Center
10:09AM 41.7647 -80.0153 103° East 467 537 37,000  Level Cleveland Center
10:10AM 41.7428 -79.8289 99° East 485 558 37,000  Level Cleveland Center
10:11AM 41.7247 -79.6511 98° East 485 558 37,000  Level Cleveland Center
10:12AM 41.7044 -79.4761 99° East 485 558 37,000 -240 Level Cleveland Center
10:13AM 41.6819 -79.2986 100° East 485 558 36,600 -660 Descending Cleveland Center
10:14AM 41.6589 -79.1183 100° East 485 558 35,700 -960 Descending Cleveland Center
10:15AM 41.6397 -78.9439 98° East 485 558 34,700 -1,020 Descending Cleveland Center
10:16AM 41.6600 -78.7711 81° East 468 539 33,700 -1,740 Descending Cleveland Center
10:17AM 41.6992 -78.6086 72° East 448 516 31,300 -1,380 Descending Cleveland Center
10:18AM 41.6753 -78.4342 100° East 448 516 31,000 -120 Descending Cleveland Center
10:20AM 41.5650 -78.1158 115° Southeast 463 533 31,000  Level New York Center
10:21AM 41.5125 -77.9550 114° Southeast 471 542 31,000  Level New York Center
10:22AM 41.4853 -77.7831 102° East 471 542 31,000  Level New York Center
10:23AM 41.4617 -77.6144 101° East 471 542 31,000  Level New York Center
10:24AM 41.4361 -77.4403 101° East 466 536 31,000  Level New York Center
10:25AM 41.4119 -77.2744 101° East 466 536 31,000  Level New York Center
10:26AM 41.3858 -77.1061 102° East 466 536 31,000 -480 Level New York Center
10:27AM 41.3611 -76.9378 101° East 466 536 30,100 -1,020 Descending New York Center
10:28AM 41.3344 -76.7725 102° East 456 525 29,000 -1,800 Descending New York Center
10:29AM 41.2939 -76.6197 109° East 451 519 26,600 -2,460 Descending New York Center
10:30AM 41.2536 -76.4672 109° East 439 505 24,200 -2,340 Descending New York Center
10:31AM 41.2144 -76.3258 110° East 425 489 22,000 -2,220 Descending New York Center
10:32AM 41.1772 -76.1822 109° East 413 475 19,800 -1,980 Descending New York Center
10:33AM 41.1453 -76.0611 109° East 396 456 18,100 -1,680 Descending New York Center
10:34AM 41.1061 -75.9122 109° East 391 450 16,500 -1,500 Descending New York Center
10:35AM 41.0700 -75.7828 110° East 391 450 15,200 -1,320 Descending New York Center
10:36AM 41.0356 -75.6564 110° East 375 432 13,900 -1,140 Descending New York Center
10:37AM 40.9989 -75.5328 111° Southeast 370 426 13,000 -480 Descending New York Center
10:38AM 40.9700 -75.4208 109° East 365 420 13,000 -1,020 Level New York Center
10:39AM 40.9314 -75.2892 111° Southeast 355 409 11,100 -1,380 Descending New York Center
10:40AM 40.9000 -75.1800 111° Southeast 333 383 10,300 -1,200 Descending New York Center
10:41AM 40.8725 -75.0794 110° East 302 348 8,800 -1,440 Descending New York Center
10:42AM 40.8486 -74.9956 111° Southeast 288 331 7,500 -960 Descending New York Center
10:43AM 40.8311 -74.9014 104° East 275 316 7,000 -300 Descending New York Center
10:44AM 40.8647 -74.8292 58° Northeast 224 258 7,000  Level New York Center
10:45AM 40.9050 -74.7519 55° Northeast 225 259 7,000  Level New York Center
10:46AM 40.9219 -74.6817 72° East 222 255 7,000 -300 Level New York Center
10:47AM 40.8931 -74.6031 116° Southeast 208 239 6,400 -600 Descending New York Center
10:48AM 40.8500 -74.5667 147° Southeast 215 247 6,000 -240 Descending New York TRACON
10:49AM 40.8000 -74.5667 180° South 214 246 6,000  Level New York TRACON
10:50AM 40.7333 -74.5667 180° South 214 246 6,000 -540 Level New York TRACON
10:51AM 40.6833 -74.5667 180° South 216 249 5,000 -540 Descending New York TRACON
10:52AM 40.6167 -74.5833 191° South 217 250 5,000 -300 Level New York TRACON
10:53AM 40.5500 -74.5500 159° South 212 244 4,400 -600 Descending New York TRACON
10:54AM 40.5000 -74.5000 143° Southeast 208 239 3,900 -720 Descending New York TRACON
10:55AM 40.4667 -74.4667 143° Southeast 179 206 3,000 -480 Descending New York TRACON
10:56AM 40.4667 -74.4000 90° East 176 203 3,000  Level New York TRACON
10:57AM 40.4833 -74.3500 66° East 150 173 3,000  Level New York TRACON
10:58AM 40.5000 -74.3167 57° Northeast 156 180 3,000  Level New York TRACON
10:59AM 40.5333 -74.2667 49° Northeast 175 201 3,000  Level New York TRACON